• pl
  • eng

Awiacja
TAF FT 16:03 25.02.2017
  • WIND
  • SIGNIFICANT EURO
  • SIGNIFICANT
  • SIGMET
  • AIRMET
  • TAF FC
  • TAF FT
  • METAR GG30
  • METAR GG00


TAF EPBY 251130Z 2512/2612 27010KT 9999 SCT025
BECMG 2516/2519 21010KT
BECMG 2520/2522 5000 -RA BR BKN013
TEMPO 2520/2524 2000 RASN BKN005
TEMPO 2600/2612 22015G25KT BKN008=

TAF EPGD 251130Z 2512/2612 27010KT 9999 SCT025
BECMG 2516/2519 21014KT
BECMG 2520/2522 5000 -RA BR BKN013
TEMPO 2520/2524 2000 RASN BKN005
TEMPO 2600/2612 22015G25KT BKN008=

TAF EPKK 251130Z 2512/2612 26015KT 9999 BKN030
TEMPO 2512/2515 26018G28KT SCT020TCU
BECMG 2516/2518 20005KT
BECMG 2606/2609 27010KT=

TAF EPKT 251130Z 2512/2612 28012KT 9999 BKN030
TEMPO 2512/2515 28016G26KT SCT020TCU
BECMG 2516/2518 20008KT
TEMPO 2606/2612 22018G30KT=

TAF EPLL 251130Z 2512/2612 27016KT 9999 SCT025 BKN040
BECMG 2515/2517 22006KT
BECMG 2600/2602 22016KT BKN014
PROB40 TEMPO 2600/2603 23016G26KT 2500 SNRA BKN004 OVC014
TEMPO 2603/2612 24018G28KT 3000 RA BKN004 OVC014=

TAF EPMO 251130Z 2512/2612 28017KT 9999 SCT025
BECMG 2515/2517 21007KT
BECMG 2522/2524 22017KT 4500 SNRA BKN012
TEMPO 2600/2604 23017G27KT 2000 SN BKN003 OVC012
TEMPO 2604/2612 23018G28KT 2500 RA OVC003=

TAF EPPO 251130Z 2512/2612 28012KT 9999 SCT026
BECMG 2516/2518 22010KT
PROB40 TEMPO 2606/2612 24015G25KT -RA=

TAF AMD EPRZ 251500Z 2515/2612 28015KT 9999 BKN025
TEMPO 2515/2516 28020G30KT
BECMG 2521/2524 20012KT
TEMPO 2604/2612 20018G28KT=

TAF EPSC 251130Z 2512/2612 25010KT 9999 BKN025
BECMG 2518/2521 21014KT 5000 RA BR BKN011
TEMPO 2520/2612 25017G27KT BKN008
PROB40 TEMPO 2520/2522 2000 RASN BKN004=

TAF EPWA 251130Z 2512/2612 28015KT 9999 SCT025
BECMG 2515/2518 21006KT
BECMG 2523/2601 22016KT 4500 SNRA BKN014
TEMPO 2601/2604 23016G26KT 2000 SN BKN004 OVC014
TEMPO 2604/2612 23018G28KT 2500 RA OVC004=

TAF EPWR 251130Z 2512/2612 28012KT 9999 SCT030
BECMG 2515/2517 19008KT
PROB30 TEMPO 2604/2607 22015G25KT -RA=
Awiacja.imgw.pl jest pogodowym serwisem informacyjnym
Instytutu Meteorologii i Gospodarki Wodnej Państwowego Instytutu Badawczego.
Copyright IMGW PIB 2009-2011© Wszelkie prawa zastrzeżone.